sensor_id;sensor_type;location;lat;lon;timestamp;temperature;humidity
55711;DHT22;41612;51.994;5.880;2024-01-11T14:45:26;1.10;81.10
55711;DHT22;41612;51.994;5.880;2024-01-11T14:47:52;1.20;81.10
55711;DHT22;41612;51.994;5.880;2024-01-11T14:50:18;1.20;81.10
55711;DHT22;41612;51.994;5.880;2024-01-11T14:52:45;1.20;80.90
55711;DHT22;41612;51.994;5.880;2024-01-11T14:55:10;1.20;81.10
55711;DHT22;41612;51.994;5.880;2024-01-11T14:57:38;1.20;81.10
55711;DHT22;41612;51.994;5.880;2024-01-11T15:00:08;1.20;81.30
55711;DHT22;41612;51.994;5.880;2024-01-11T15:02:35;1.30;81.50
55711;DHT22;41612;51.994;5.880;2024-01-11T15:05:01;1.20;81.50
55711;DHT22;41612;51.994;5.880;2024-01-11T15:07:27;1.20;81.30
55711;DHT22;41612;51.994;5.880;2024-01-11T15:09:53;1.20;81.40
55711;DHT22;41612;51.994;5.880;2024-01-11T15:12:19;1.20;81.50
55711;DHT22;41612;51.994;5.880;2024-01-11T15:14:47;1.20;81.80
55711;DHT22;41612;51.994;5.880;2024-01-11T15:17:17;1.10;81.80
55711;DHT22;41612;51.994;5.880;2024-01-11T15:19:43;1.00;82.10
55711;DHT22;41612;51.994;5.880;2024-01-11T15:22:09;1.00;82.30
55711;DHT22;41612;51.994;5.880;2024-01-11T15:24:37;1.00;82.30
55711;DHT22;41612;51.994;5.880;2024-01-11T15:27:03;1.00;82.50
55711;DHT22;41612;51.994;5.880;2024-01-11T15:29:29;1.00;82.50
55711;DHT22;41612;51.994;5.880;2024-01-11T15:31:55;1.00;82.70
55711;DHT22;41612;51.994;5.880;2024-01-11T15:34:20;1.00;82.80
55711;DHT22;41612;51.994;5.880;2024-01-11T15:36:47;1.00;82.90
55711;DHT22;41612;51.994;5.880;2024-01-11T15:39:13;1.00;82.90
55711;DHT22;41612;51.994;5.880;2024-01-11T15:41:38;1.00;82.90
55711;DHT22;41612;51.994;5.880;2024-01-11T15:44:04;1.00;82.60
55711;DHT22;41612;51.994;5.880;2024-01-11T15:46:30;1.00;82.40
55711;DHT22;41612;51.994;5.880;2024-01-11T15:48:55;1.00;82.50
55711;DHT22;41612;51.994;5.880;2024-01-11T15:51:21;1.00;82.70
55711;DHT22;41612;51.994;5.880;2024-01-11T15:53:47;1.00;82.80
55711;DHT22;41612;51.994;5.880;2024-01-11T15:56:13;1.00;82.80
55711;DHT22;41612;51.994;5.880;2024-01-11T15:58:39;1.00;83.00
55711;DHT22;41612;51.994;5.880;2024-01-11T16:01:08;1.00;82.90
55711;DHT22;41612;51.994;5.880;2024-01-11T16:03:34;1.00;82.90
55711;DHT22;41612;51.994;5.880;2024-01-11T16:05:59;1.00;82.90
55711;DHT22;41612;51.994;5.880;2024-01-11T16:08:25;1.10;83.00
55711;DHT22;41612;51.994;5.880;2024-01-11T16:10:51;1.10;82.80
55711;DHT22;41612;51.994;5.880;2024-01-11T16:13:17;1.10;82.60
55711;DHT22;41612;51.994;5.880;2024-01-11T16:15:43;1.10;82.90
55711;DHT22;41612;51.994;5.880;2024-01-11T16:18:09;1.10;83.10
55711;DHT22;41612;51.994;5.880;2024-01-11T16:20:35;1.10;83.30
55711;DHT22;41612;51.994;5.880;2024-01-11T16:23:01;1.10;82.60
55711;DHT22;41612;51.994;5.880;2024-01-11T16:25:26;1.10;82.90
55711;DHT22;41612;51.994;5.880;2024-01-11T16:27:52;1.10;83.00
55711;DHT22;41612;51.994;5.880;2024-01-11T16:30:18;1.10;82.90
55711;DHT22;41612;51.994;5.880;2024-01-11T16:32:43;1.10;82.70
55711;DHT22;41612;51.994;5.880;2024-01-11T16:35:09;1.10;82.80
55711;DHT22;41612;51.994;5.880;2024-01-11T16:37:35;1.10;83.00
55711;DHT22;41612;51.994;5.880;2024-01-11T16:40:01;1.20;82.80
55711;DHT22;41612;51.994;5.880;2024-01-11T16:42:26;1.10;82.80
55711;DHT22;41612;51.994;5.880;2024-01-11T16:44:53;1.20;83.00
55711;DHT22;41612;51.994;5.880;2024-01-11T16:47:19;1.20;83.10
55711;DHT22;41612;51.994;5.880;2024-01-11T16:49:45;1.20;83.20
55711;DHT22;41612;51.994;5.880;2024-01-11T16:52:11;1.20;83.40
55711;DHT22;41612;51.994;5.880;2024-01-11T16:54:36;1.20;83.60
55711;DHT22;41612;51.994;5.880;2024-01-11T16:57:02;1.20;83.60
55711;DHT22;41612;51.994;5.880;2024-01-11T16:59:29;1.20;83.50
55711;DHT22;41612;51.994;5.880;2024-01-11T17:01:55;1.20;83.60
55711;DHT22;41612;51.994;5.880;2024-01-11T17:04:21;1.20;83.70
55711;DHT22;41612;51.994;5.880;2024-01-11T17:06:47;1.20;83.80
55711;DHT22;41612;51.994;5.880;2024-01-11T17:09:12;1.20;83.70
55711;DHT22;41612;51.994;5.880;2024-01-11T17:11:39;1.20;83.90
55711;DHT22;41612;51.994;5.880;2024-01-11T17:14:06;1.20;83.90
55711;DHT22;41612;51.994;5.880;2024-01-11T17:16:32;1.20;84.10
55711;DHT22;41612;51.994;5.880;2024-01-11T17:18:58;1.10;84.00
55711;DHT22;41612;51.994;5.880;2024-01-11T17:21:24;1.10;84.30
55711;DHT22;41612;51.994;5.880;2024-01-11T17:23:49;1.10;84.30
55711;DHT22;41612;51.994;5.880;2024-01-11T17:26:15;1.00;84.40
55711;DHT22;41612;51.994;5.880;2024-01-11T17:28:41;1.10;84.60
55711;DHT22;41612;51.994;5.880;2024-01-11T17:31:07;1.10;84.60
55711;DHT22;41612;51.994;5.880;2024-01-11T17:33:32;1.10;84.70
55711;DHT22;41612;51.994;5.880;2024-01-11T17:35:58;1.10;84.50
55711;DHT22;41612;51.994;5.880;2024-01-11T17:38:24;1.10;84.70
55711;DHT22;41612;51.994;5.880;2024-01-11T17:40:49;1.10;84.80
55711;DHT22;41612;51.994;5.880;2024-01-11T17:43:15;1.10;84.70
55711;DHT22;41612;51.994;5.880;2024-01-11T17:45:45;1.10;84.90
55711;DHT22;41612;51.994;5.880;2024-01-11T17:48:16;1.10;84.80
55711;DHT22;41612;51.994;5.880;2024-01-11T17:50:53;1.10;84.60
55711;DHT22;41612;51.994;5.880;2024-01-11T17:53:49;1.20;84.70
55711;DHT22;41612;51.994;5.880;2024-01-11T17:59:52;1.20;84.50
55711;DHT22;41612;51.994;5.880;2024-01-11T18:02:21;1.10;84.70
55711;DHT22;41612;51.994;5.880;2024-01-11T18:04:47;1.10;84.80
55711;DHT22;41612;51.994;5.880;2024-01-11T18:07:14;1.20;84.90
55711;DHT22;41612;51.994;5.880;2024-01-11T18:09:40;1.10;85.00
55711;DHT22;41612;51.994;5.880;2024-01-11T18:12:11;1.10;84.80
55711;DHT22;41612;51.994;5.880;2024-01-11T18:14:47;1.10;85.10
55711;DHT22;41612;51.994;5.880;2024-01-11T18:17:33;1.10;85.20
55711;DHT22;41612;51.994;5.880;2024-01-11T18:35:35;1.20;84.90
55711;DHT22;41612;51.994;5.880;2024-01-11T18:38:06;1.20;84.70
55711;DHT22;41612;51.994;5.880;2024-01-11T18:41:03;1.20;84.50
55711;DHT22;41612;51.994;5.880;2024-01-11T18:43:35;1.30;84.50
55711;DHT22;41612;51.994;5.880;2024-01-11T18:54:41;1.30;84.50
55711;DHT22;41612;51.994;5.880;2024-01-11T18:57:10;1.40;84.20
55711;DHT22;41612;51.994;5.880;2024-01-11T18:59:48;1.40;84.10
55711;DHT22;41612;51.994;5.880;2024-01-11T19:02:50;1.50;84.20
55711;DHT22;41612;51.994;5.880;2024-01-11T19:05:22;1.50;84.10
55711;DHT22;41612;51.994;5.880;2024-01-11T19:07:53;1.50;84.10
55711;DHT22;41612;51.994;5.880;2024-01-11T19:10:22;1.50;84.20
55711;DHT22;41612;51.994;5.880;2024-01-11T19:12:49;1.50;84.10
55711;DHT22;41612;51.994;5.880;2024-01-11T19:15:16;1.60;84.20
55711;DHT22;41612;51.994;5.880;2024-01-11T19:17:45;1.50;84.30
55711;DHT22;41612;51.994;5.880;2024-01-11T19:20:13;1.60;84.20
55711;DHT22;41612;51.994;5.880;2024-01-11T19:22:53;1.60;84.20
55711;DHT22;41612;51.994;5.880;2024-01-11T19:25:34;1.60;84.30
55711;DHT22;41612;51.994;5.880;2024-01-11T19:28:05;1.70;84.40
55711;DHT22;41612;51.994;5.880;2024-01-11T19:30:34;1.60;84.30
55711;DHT22;41612;51.994;5.880;2024-01-11T19:33:25;1.70;84.30
55711;DHT22;41612;51.994;5.880;2024-01-11T19:35:52;1.70;84.30
55711;DHT22;41612;51.994;5.880;2024-01-11T19:38:35;1.60;84.30
55711;DHT22;41612;51.994;5.880;2024-01-11T19:41:37;1.70;84.30
55711;DHT22;41612;51.994;5.880;2024-01-11T19:44:07;1.70;84.40
55711;DHT22;41612;51.994;5.880;2024-01-11T19:46:36;1.70;84.40
55711;DHT22;41612;51.994;5.880;2024-01-11T19:49:07;1.70;84.40
55711;DHT22;41612;51.994;5.880;2024-01-11T19:51:44;1.70;84.30
55711;DHT22;41612;51.994;5.880;2024-01-11T19:54:59;1.70;84.40
55711;DHT22;41612;51.994;5.880;2024-01-11T19:57:28;1.80;84.20
55711;DHT22;41612;51.994;5.880;2024-01-11T19:59:57;1.80;84.10
55711;DHT22;41612;51.994;5.880;2024-01-11T20:03:01;1.80;84.10
55711;DHT22;41612;51.994;5.880;2024-01-11T20:05:56;1.80;84.10
55711;DHT22;41612;51.994;5.880;2024-01-11T20:08:23;1.80;84.20
55711;DHT22;41612;51.994;5.880;2024-01-11T20:11:03;1.80;84.10
55711;DHT22;41612;51.994;5.880;2024-01-11T20:13:42;1.80;84.10
55711;DHT22;41612;51.994;5.880;2024-01-11T20:16:11;1.80;84.10
55711;DHT22;41612;51.994;5.880;2024-01-11T20:19:02;1.80;84.20
55711;DHT22;41612;51.994;5.880;2024-01-11T20:21:28;1.80;84.20
55711;DHT22;41612;51.994;5.880;2024-01-11T20:24:20;1.80;84.30
55711;DHT22;41612;51.994;5.880;2024-01-11T20:27:29;1.90;84.20
55711;DHT22;41612;51.994;5.880;2024-01-11T20:41:03;2.00;84.10
55711;DHT22;41612;51.994;5.880;2024-01-11T20:43:29;2.00;84.00
55711;DHT22;41612;51.994;5.880;2024-01-11T20:45:54;2.00;84.00
55711;DHT22;41612;51.994;5.880;2024-01-11T20:48:20;2.00;83.90
55711;DHT22;41612;51.994;5.880;2024-01-11T20:50:46;2.00;83.90
55711;DHT22;41612;51.994;5.880;2024-01-11T20:53:12;2.10;83.90
55711;DHT22;41612;51.994;5.880;2024-01-11T20:55:38;2.00;83.90
55711;DHT22;41612;51.994;5.880;2024-01-11T20:58:04;2.00;83.90
55711;DHT22;41612;51.994;5.880;2024-01-11T21:00:30;2.10;83.90
55711;DHT22;41612;51.994;5.880;2024-01-11T21:02:56;2.00;83.90
55711;DHT22;41612;51.994;5.880;2024-01-11T21:05:22;2.00;83.90
55711;DHT22;41612;51.994;5.880;2024-01-11T21:07:49;2.10;83.90
55711;DHT22;41612;51.994;5.880;2024-01-11T21:10:15;2.00;83.80
55711;DHT22;41612;51.994;5.880;2024-01-11T21:12:41;2.00;83.80
55711;DHT22;41612;51.994;5.880;2024-01-11T21:15:07;2.00;83.90
55711;DHT22;41612;51.994;5.880;2024-01-11T21:17:33;2.00;83.90
55711;DHT22;41612;51.994;5.880;2024-01-11T21:19:59;2.00;83.50
55711;DHT22;41612;51.994;5.880;2024-01-11T21:22:25;2.00;83.80
55711;DHT22;41612;51.994;5.880;2024-01-11T21:24:51;2.00;83.90
55711;DHT22;41612;51.994;5.880;2024-01-11T21:27:17;2.00;84.00
55711;DHT22;41612;51.994;5.880;2024-01-11T21:29:43;2.00;84.00
55711;DHT22;41612;51.994;5.880;2024-01-11T21:32:08;2.10;84.00
55711;DHT22;41612;51.994;5.880;2024-01-11T21:34:34;2.10;83.80
55711;DHT22;41612;51.994;5.880;2024-01-11T21:37:00;2.10;83.90
55711;DHT22;41612;51.994;5.880;2024-01-11T21:39:25;2.10;83.90
55711;DHT22;41612;51.994;5.880;2024-01-11T21:41:51;2.10;83.80
55711;DHT22;41612;51.994;5.880;2024-01-11T21:44:17;2.10;83.90
55711;DHT22;41612;51.994;5.880;2024-01-11T21:46:42;2.10;83.90
55711;DHT22;41612;51.994;5.880;2024-01-11T21:49:08;2.10;83.90
55711;DHT22;41612;51.994;5.880;2024-01-11T21:51:34;2.10;83.80
55711;DHT22;41612;51.994;5.880;2024-01-11T21:54:00;2.20;83.40
55711;DHT22;41612;51.994;5.880;2024-01-11T21:56:26;2.10;83.40
55711;DHT22;41612;51.994;5.880;2024-01-11T21:58:52;2.10;82.80
55711;DHT22;41612;51.994;5.880;2024-01-11T22:01:18;2.10;80.60
55711;DHT22;41612;51.994;5.880;2024-01-11T22:03:44;2.00;81.30
55711;DHT22;41612;51.994;5.880;2024-01-11T22:06:10;2.10;82.20
55711;DHT22;41612;51.994;5.880;2024-01-11T22:08:36;2.10;82.70
55711;DHT22;41612;51.994;5.880;2024-01-11T22:11:02;2.10;83.10
55711;DHT22;41612;51.994;5.880;2024-01-11T22:13:28;2.10;83.10
55711;DHT22;41612;51.994;5.880;2024-01-11T22:15:54;2.10;80.20
55711;DHT22;41612;51.994;5.880;2024-01-11T22:18:19;2.10;81.00
55711;DHT22;41612;51.994;5.880;2024-01-11T22:20:45;2.00;82.10
55711;DHT22;41612;51.994;5.880;2024-01-11T22:23:11;2.00;82.60
55711;DHT22;41612;51.994;5.880;2024-01-11T22:25:37;2.00;82.70
55711;DHT22;41612;51.994;5.880;2024-01-11T22:28:02;2.00;82.90
55711;DHT22;41612;51.994;5.880;2024-01-11T22:30:29;2.10;82.90
55711;DHT22;41612;51.994;5.880;2024-01-11T22:32:55;2.00;82.70
55711;DHT22;41612;51.994;5.880;2024-01-11T22:35:20;2.10;82.70
55711;DHT22;41612;51.994;5.880;2024-01-11T22:37:46;2.10;82.30
55711;DHT22;41612;51.994;5.880;2024-01-11T22:40:11;2.10;82.80
55711;DHT22;41612;51.994;5.880;2024-01-11T22:42:39;2.10;82.30
55711;DHT22;41612;51.994;5.880;2024-01-11T22:45:08;2.10;82.00
55711;DHT22;41612;51.994;5.880;2024-01-11T22:47:34;2.10;80.90
55711;DHT22;41612;51.994;5.880;2024-01-11T22:50:00;2.20;80.60
55711;DHT22;41612;51.994;5.880;2024-01-11T22:52:25;2.10;80.90
55711;DHT22;41612;51.994;5.880;2024-01-11T22:54:51;2.20;81.60
55711;DHT22;41612;51.994;5.880;2024-01-11T22:57:17;2.20;81.60
55711;DHT22;41612;51.994;5.880;2024-01-11T22:59:42;2.20;81.80
55711;DHT22;41612;51.994;5.880;2024-01-11T23:02:08;2.20;81.90
55711;DHT22;41612;51.994;5.880;2024-01-11T23:04:34;2.20;82.00
55711;DHT22;41612;51.994;5.880;2024-01-11T23:07:00;2.20;82.00
55711;DHT22;41612;51.994;5.880;2024-01-11T23:09:27;2.20;81.90
55711;DHT22;41612;51.994;5.880;2024-01-11T23:11:52;2.20;80.40
55711;DHT22;41612;51.994;5.880;2024-01-11T23:14:18;2.20;80.00
55711;DHT22;41612;51.994;5.880;2024-01-11T23:16:47;2.20;80.30
55711;DHT22;41612;51.994;5.880;2024-01-11T23:19:13;2.20;79.10
55711;DHT22;41612;51.994;5.880;2024-01-11T23:21:39;2.20;79.90
55711;DHT22;41612;51.994;5.880;2024-01-11T23:24:08;2.20;79.70
55711;DHT22;41612;51.994;5.880;2024-01-11T23:26:34;2.20;79.00
55711;DHT22;41612;51.994;5.880;2024-01-11T23:29:00;2.20;79.70
55711;DHT22;41612;51.994;5.880;2024-01-11T23:31:26;2.20;80.10
55711;DHT22;41612;51.994;5.880;2024-01-11T23:33:52;2.20;80.40
55711;DHT22;41612;51.994;5.880;2024-01-11T23:36:17;2.20;80.20
55711;DHT22;41612;51.994;5.880;2024-01-11T23:38:43;2.30;79.80
55711;DHT22;41612;51.994;5.880;2024-01-11T23:41:09;2.20;79.90
55711;DHT22;41612;51.994;5.880;2024-01-11T23:43:34;2.30;80.00
55711;DHT22;41612;51.994;5.880;2024-01-11T23:46:00;2.20;79.70
55711;DHT22;41612;51.994;5.880;2024-01-11T23:48:26;2.20;79.10
55711;DHT22;41612;51.994;5.880;2024-01-11T23:50:52;2.20;78.00
55711;DHT22;41612;51.994;5.880;2024-01-11T23:53:18;2.20;78.60
55711;DHT22;41612;51.994;5.880;2024-01-11T23:55:44;2.20;78.90
55711;DHT22;41612;51.994;5.880;2024-01-11T23:58:10;2.20;79.00
